Mercer County Airport

About
Name: Mercer County Airport
Identifier:  BLF/KBLF
Local Time:  20. Aug 10:57 EDT
Location
Flights per Day
0 flights
Distance: 523km (325mi)
Punctuality
0% (0 flights per day delayed)
Delay Average: 13 minutes
Current Weather
 25 C (Humidity: 61%)
  6kt (11km/h / 6mph) from 260°
  16km (10 mi.)
 
 METAR KBLF 201352Z AUTO 26006KT 10SM CLR 25/17 A3024 RMK AO2 SLP201 T02500167

Current Flights

Departures
Number Departure To Airline
Arrivals
Number Arrival From Airline

Current Delays

Departures
N/A
Arrivals
N/A

Destinations

Top Destinations
Airport Flights
per week
Seats
per week
  Columbus (CMH) 3 - 0 0
  Charleston (CRW) 1 - 0 0
  Charleston (JZI) 0 - 0 0
  North Myrtle Beach (CRE) 0 - 0 0
  Roanoke (ROA) 0 - 0 0
  Athens (MMI) 0 - 0 0
  Charlottesville (CHO) 0 - 0 0

Airlines & Planes

Top Airlines
Airline Flights
per Day
Seats
per Day
Labcorp 0 -
Jet Charter Inc ( Franklin Lakes Nj ) 0 -
KaiserAir 0 -
Top Plane Types
Model Flights Seats
Pilatus PC-12 0.6/day - 0
Beech A100 King Air 0.1/day - 0
Beech B200 Super King Air 0.1/day - 0
Cessna C560 0.0/day - 0